Leesville, Louisiana
Current Conditions -  °F | °C
As of 5:58 PM on Wednesday 28 Jan 2015 (Local Time) from KPOE Reporting Station
Clear Clear  
Wind Chill: 66°   Ceiling: Unl
Heat Index: 66°   Visibility: 10mi
Dew Point: 42°   Wind: 14mph
Humidity: 42%   Direction: 150°SSE
Pressure: 30.11"   Gusts: NA
Location:  31.14°N, 93.26°W
Report Text: KPOE 282358Z AUTO 15012KT 10SM CLR 19/06 A3011 RMK AO2 SLP198 T01870056 10228 20187 57015
Loading
Personal Weather Stations






























Interactive Weather Map New forecast layout! Learn more

10-Day Weather Forecast

Advertisements
Track Severe Weather on mobile